createdAt,value
2018-11-06T00:01:24.251Z,57.20
2018-11-06T00:03:58.225Z,57.30
2018-11-06T00:06:26.796Z,57.50
2018-11-06T00:08:54.299Z,57.80
2018-11-06T00:11:21.798Z,57.90
2018-11-06T00:13:49.771Z,58.10
2018-11-06T00:16:18.891Z,58.00
2018-11-06T00:18:47.425Z,58.40
2018-11-06T00:21:15.383Z,58.30
2018-11-06T00:23:42.930Z,58.60
2018-11-06T00:26:11.929Z,58.90
2018-11-06T00:28:40.290Z,58.80
2018-11-06T00:31:07.801Z,58.80
2018-11-06T00:33:35.348Z,58.90
2018-11-06T00:36:02.959Z,58.80
2018-11-06T00:38:31.273Z,58.70
2018-11-06T00:40:59.392Z,58.70
2018-11-06T00:43:26.924Z,59.00
2018-11-06T00:45:54.460Z,59.20
2018-11-06T00:48:22.439Z,59.10
2018-11-06T00:50:50.708Z,59.20
2018-11-06T00:53:18.279Z,60.00
2018-11-06T00:55:47.193Z,59.30
2018-11-06T00:58:15.776Z,59.10
2018-11-06T01:00:43.295Z,59.10
2018-11-06T01:03:10.792Z,59.00
2018-11-06T01:05:39.045Z,58.90
2018-11-06T01:08:06.573Z,59.00
2018-11-06T01:10:34.089Z,59.30
2018-11-06T01:13:02.395Z,59.40
2018-11-06T01:15:30.564Z,59.40
2018-11-06T01:17:58.138Z,59.50
2018-11-06T01:20:25.682Z,59.70
2018-11-06T01:22:53.264Z,59.70
2018-11-06T01:25:21.715Z,59.90
2018-11-06T01:27:49.240Z,60.10
2018-11-06T01:30:18.585Z,60.10
2018-11-06T01:32:46.761Z,60.10
2018-11-06T01:35:14.913Z,59.90
2018-11-06T01:37:43.552Z,59.90
2018-11-06T01:40:13.124Z,59.80
2018-11-06T01:42:42.793Z,60.20
2018-11-06T01:45:12.236Z,60.10
2018-11-06T01:47:41.051Z,60.40
2018-11-06T01:50:11.927Z,60.30
2018-11-06T01:52:40.789Z,60.50
2018-11-06T01:55:10.329Z,60.90
2018-11-06T01:57:37.854Z,60.70
2018-11-06T02:00:07.897Z,60.90
2018-11-06T02:02:35.434Z,60.80
2018-11-06T02:05:03.572Z,61.00
2018-11-06T02:07:31.153Z,60.90
2018-11-06T02:09:59.354Z,61.00
2018-11-06T02:12:28.713Z,61.30
2018-11-06T02:14:57.700Z,61.30
2018-11-06T02:17:25.583Z,61.50
2018-11-06T02:19:53.196Z,61.50
2018-11-06T02:22:20.716Z,61.20
2018-11-06T02:24:49.513Z,61.30
2018-11-06T02:27:17.032Z,61.20
2018-11-06T02:29:45.138Z,61.30
2018-11-06T02:32:12.692Z,61.10
2018-11-06T02:34:41.091Z,61.00
2018-11-06T02:37:08.601Z,61.40
2018-11-06T02:39:36.108Z,61.50
2018-11-06T02:42:04.920Z,61.70
2018-11-06T02:44:32.465Z,61.60
2018-11-06T02:47:01.552Z,61.60
2018-11-06T02:49:30.353Z,61.90
2018-11-06T02:51:57.872Z,62.50
2018-11-06T02:54:27.232Z,63.20
2018-11-06T02:56:54.737Z,62.40
2018-11-06T02:59:22.760Z,62.40
2018-11-06T03:01:50.497Z,62.30
2018-11-06T03:04:18.028Z,62.20
2018-11-06T03:06:46.089Z,62.50
2018-11-06T03:09:13.721Z,62.50
2018-11-06T03:11:41.319Z,62.50
2018-11-06T03:14:08.944Z,62.60
2018-11-06T03:16:37.362Z,62.60
2018-11-06T03:19:05.553Z,62.40
2018-11-06T03:21:33.048Z,62.70
2018-11-06T03:24:00.869Z,62.70
2018-11-06T03:26:28.947Z,63.10
2018-11-06T03:28:56.444Z,62.90
2018-11-06T03:31:25.118Z,62.90
2018-11-06T03:33:52.665Z,62.70
2018-11-06T03:36:20.181Z,62.80
2018-11-06T03:38:47.890Z,63.50
2018-11-06T03:41:16.490Z,63.30
2018-11-06T03:43:44.799Z,63.20
2018-11-06T03:46:12.322Z,63.60
2018-11-06T03:48:41.327Z,63.30
2018-11-06T03:51:09.295Z,63.60
2018-11-06T03:53:36.891Z,64.20
2018-11-06T03:56:05.745Z,63.50
2018-11-06T03:58:34.448Z,63.50
2018-11-06T04:01:02.003Z,62.90
2018-11-06T04:03:29.518Z,63.60
2018-11-06T04:05:58.164Z,63.50
2018-11-06T04:08:25.678Z,63.30
2018-11-06T04:10:53.190Z,63.90
2018-11-06T04:13:20.855Z,63.70
2018-11-06T04:15:49.645Z,64.00
2018-11-06T04:18:17.191Z,64.10
2018-11-06T04:20:44.697Z,63.90
2018-11-06T04:23:12.305Z,63.70
2018-11-06T04:25:41.551Z,63.40
2018-11-06T04:28:09.054Z,63.50
2018-11-06T04:30:37.011Z,63.00
2018-11-06T04:33:04.521Z,62.80
2018-11-06T04:35:32.721Z,62.10
2018-11-06T04:38:00.228Z,61.90
2018-11-06T04:40:27.753Z,62.10
2018-11-06T04:42:56.555Z,62.10
2018-11-06T04:45:24.535Z,62.30
2018-11-06T04:47:52.677Z,62.40
2018-11-06T04:50:20.262Z,62.20
2018-11-06T04:52:47.880Z,62.00
2018-11-06T04:55:16.407Z,62.30
2018-11-06T04:57:44.023Z,62.20
2018-11-06T05:00:13.994Z,62.30
2018-11-06T05:02:42.533Z,62.40
2018-11-06T05:05:10.967Z,62.50
2018-11-06T05:07:39.726Z,62.50
2018-11-06T05:10:09.423Z,62.50
2018-11-06T05:12:36.991Z,62.50
2018-11-06T05:15:07.502Z,62.50
2018-11-06T05:17:35.060Z,62.50
2018-11-06T05:20:02.703Z,62.60
2018-11-06T05:22:30.306Z,62.90
2018-11-06T05:24:58.739Z,63.20
2018-11-06T05:27:26.765Z,63.10
2018-11-06T05:29:54.342Z,63.70
2018-11-06T05:32:22.831Z,63.60
2018-11-06T05:34:50.432Z,63.60
2018-11-06T05:37:19.141Z,63.50
2018-11-06T05:39:58.575Z,63.30
2018-11-06T05:42:26.959Z,63.20
2018-11-06T05:44:54.466Z,63.30
2018-11-06T05:47:21.999Z,64.20
2018-11-06T05:49:50.142Z,63.40
2018-11-06T05:52:18.898Z,63.70
2018-11-06T05:54:47.169Z,63.70
2018-11-06T05:57:15.405Z,63.60
2018-11-06T05:59:43.524Z,63.30
2018-11-06T06:02:11.053Z,63.00
2018-11-06T06:04:40.085Z,62.90
2018-11-06T06:07:07.593Z,62.90
2018-11-06T06:09:35.097Z,62.80
2018-11-06T06:12:02.639Z,62.90
2018-11-06T06:14:30.920Z,63.10
2018-11-06T06:16:58.515Z,63.20
2018-11-06T06:19:26.047Z,63.20
2018-11-06T06:21:54.844Z,63.20
2018-11-06T06:24:23.131Z,63.40
2018-11-06T06:26:51.220Z,63.30
2018-11-06T06:29:19.425Z,62.70
2018-11-06T06:31:46.975Z,62.60
2018-11-06T06:34:14.915Z,62.00
2018-11-06T06:36:43.191Z,62.20
2018-11-06T06:39:10.719Z,62.00
2018-11-06T06:41:39.217Z,62.10
2018-11-06T06:44:07.432Z,61.70
2018-11-06T06:46:35.151Z,61.80
2018-11-06T06:49:03.081Z,61.50
2018-11-06T06:51:31.480Z,61.60
2018-11-06T06:53:59.028Z,61.50
2018-11-06T06:56:27.084Z,61.70
2018-11-06T06:58:55.863Z,61.10
2018-11-06T07:01:24.564Z,61.00
2018-11-06T07:03:52.472Z,60.70
2018-11-06T07:06:20.523Z,60.50
2018-11-06T07:08:48.089Z,60.30
2018-11-06T07:11:15.624Z,59.60
2018-11-06T07:13:43.224Z,59.80
2018-11-06T07:16:10.739Z,59.90
2018-11-06T07:18:38.386Z,59.90
2018-11-06T07:21:07.980Z,59.70
2018-11-06T07:23:35.595Z,59.90
2018-11-06T07:26:03.897Z,59.40
2018-11-06T07:28:32.443Z,59.50
2018-11-06T07:30:59.960Z,60.00
2018-11-06T07:33:27.848Z,60.00
2018-11-06T07:35:55.808Z,59.30
2018-11-06T07:38:23.842Z,59.10
2018-11-06T07:40:52.136Z,59.20
2018-11-06T07:43:20.451Z,59.20
2018-11-06T07:45:48.602Z,59.00
2018-11-06T07:48:17.307Z,59.30
2018-11-06T07:50:44.811Z,59.60
2018-11-06T07:53:12.499Z,59.50
2018-11-06T07:55:40.608Z,59.10
2018-11-06T07:58:08.996Z,59.20
2018-11-06T08:00:37.012Z,60.00
2018-11-06T08:03:04.892Z,59.10
2018-11-06T08:05:33.354Z,59.00
2018-11-06T08:08:01.090Z,58.50
2018-11-06T08:10:28.609Z,58.70
2018-11-06T08:12:56.297Z,58.50
2018-11-06T08:15:23.824Z,58.50
2018-11-06T08:17:51.478Z,57.90
2018-11-06T08:20:19.605Z,58.40
2018-11-06T08:22:47.059Z,58.10
2018-11-06T08:25:16.196Z,57.90
2018-11-06T08:27:44.357Z,57.60
2018-11-06T08:30:12.508Z,57.80
2018-11-06T08:32:43.022Z,56.20
2018-11-06T08:35:13.029Z,56.70
2018-11-06T08:37:41.025Z,56.70
2018-11-06T08:40:10.616Z,56.50
2018-11-06T08:42:38.929Z,57.10
2018-11-06T08:45:08.324Z,57.00
2018-11-06T08:47:35.851Z,57.00
2018-11-06T08:50:04.948Z,56.90
2018-11-06T08:52:32.480Z,56.90
2018-11-06T08:55:00.569Z,57.00
2018-11-06T08:57:28.068Z,56.20
2018-11-06T08:59:56.156Z,56.20
2018-11-06T09:02:24.084Z,56.00
2018-11-06T09:04:52.780Z,55.90
2018-11-06T09:07:20.408Z,54.80
2018-11-06T09:09:47.932Z,54.60
2018-11-06T09:12:15.521Z,54.90
2018-11-06T09:14:43.068Z,54.20
2018-11-06T09:17:11.919Z,54.20
2018-11-06T09:19:39.340Z,54.00
2018-11-06T09:22:06.883Z,53.80
2018-11-06T09:24:34.977Z,53.60
2018-11-06T09:27:02.498Z,53.20
2018-11-06T09:29:30.776Z,52.60
2018-11-06T09:31:59.066Z,51.20
2018-11-06T09:34:28.068Z,51.40
2018-11-06T09:36:55.596Z,51.90
2018-11-06T09:39:23.116Z,51.10
2018-11-06T09:41:51.156Z,51.10
2018-11-06T09:44:18.689Z,50.80
2018-11-06T09:46:46.203Z,50.40
2018-11-06T09:49:14.260Z,50.10
2018-11-06T09:51:41.772Z,50.50
2018-11-06T09:54:09.298Z,50.40
2018-11-06T09:56:37.250Z,50.40
2018-11-06T09:59:05.558Z,49.90
2018-11-06T10:01:33.080Z,48.00
2018-11-06T10:04:00.633Z,47.90
2018-11-06T10:06:28.692Z,47.70
2018-11-06T10:08:56.104Z,48.30
2018-11-06T10:11:23.659Z,47.40
2018-11-06T10:13:51.661Z,47.30
2018-11-06T10:16:20.232Z,46.10
2018-11-06T10:18:47.772Z,47.30
2018-11-06T10:21:15.405Z,47.40
2018-11-06T10:23:43.135Z,47.30
2018-11-06T10:26:12.216Z,47.30
2018-11-06T10:28:40.303Z,47.60
2018-11-06T10:31:08.228Z,47.20
2018-11-06T10:33:36.837Z,47.80
2018-11-06T10:36:04.748Z,47.60
2018-11-06T10:38:33.019Z,46.10
2018-11-06T10:41:00.598Z,46.00
2018-11-06T10:43:28.152Z,46.30
2018-11-06T10:45:55.822Z,45.00
2018-11-06T10:48:23.684Z,45.90
2018-11-06T10:50:52.291Z,46.20
2018-11-06T10:53:20.281Z,45.80
2018-11-06T10:55:48.835Z,45.20
2018-11-06T10:58:16.876Z,45.40
2018-11-06T11:00:54.099Z,44.70
2018-11-06T11:03:32.344Z,45.30
2018-11-06T11:06:00.889Z,45.30
2018-11-06T11:08:28.424Z,44.40
2018-11-06T11:10:56.142Z,44.40
2018-11-06T11:13:24.074Z,44.40
2018-11-06T11:15:51.594Z,43.50
2018-11-06T11:18:19.222Z,44.90
2018-11-06T11:20:46.897Z,45.20
2018-11-06T11:23:14.418Z,44.90
2018-11-06T11:25:43.010Z,43.90
2018-11-06T11:28:11.102Z,44.50
2018-11-06T11:30:38.635Z,43.70
2018-11-06T11:33:06.273Z,43.90
2018-11-06T11:35:34.538Z,44.40
2018-11-06T11:38:02.831Z,43.70
2018-11-06T11:40:30.275Z,44.10
2018-11-06T11:42:57.859Z,43.20
2018-11-06T11:45:26.230Z,42.30
2018-11-06T11:47:54.233Z,42.60
2018-11-06T11:50:21.759Z,42.50
2018-11-06T11:52:49.376Z,42.70
2018-11-06T11:55:18.163Z,42.60
2018-11-06T11:57:46.252Z,43.10
2018-11-06T12:00:16.206Z,42.90
2018-11-06T12:02:43.640Z,42.80
2018-11-06T12:05:12.683Z,43.30
2018-11-06T12:07:40.206Z,43.20
2018-11-06T12:10:09.528Z,42.70
2018-11-06T12:12:37.952Z,42.40
2018-11-06T12:15:07.694Z,42.90
2018-11-06T12:17:35.403Z,42.70
2018-11-06T12:20:03.178Z,43.00
2018-11-06T12:22:31.116Z,43.30
2018-11-06T12:24:59.218Z,43.00
2018-11-06T12:27:27.771Z,42.90
2018-11-06T12:29:55.828Z,43.40
2018-11-06T12:32:23.567Z,42.90
2018-11-06T12:34:51.078Z,42.10
2018-11-06T12:37:18.649Z,42.70
2018-11-06T12:39:46.592Z,42.80
2018-11-06T12:42:14.132Z,43.20
2018-11-06T12:44:42.860Z,42.50
2018-11-06T12:47:10.438Z,42.70
2018-11-06T12:49:39.280Z,42.50
2018-11-06T12:52:06.854Z,42.40
2018-11-06T12:54:34.815Z,42.50
2018-11-06T12:57:02.983Z,41.90
2018-11-06T12:59:31.853Z,41.70
2018-11-06T13:01:59.456Z,41.90
2018-11-06T13:04:28.112Z,41.60
2018-11-06T13:06:56.217Z,42.50
2018-11-06T13:09:26.889Z,42.50
2018-11-06T13:11:55.617Z,42.10
2018-11-06T13:14:25.740Z,41.90
2018-11-06T13:16:56.850Z,41.70
2018-11-06T13:19:26.992Z,40.90
2018-11-06T13:21:54.963Z,41.10
2018-11-06T13:24:23.333Z,41.00
2018-11-06T13:26:50.860Z,41.50
2018-11-06T13:29:19.091Z,41.90
2018-11-06T13:31:46.712Z,42.60
2018-11-06T13:34:15.580Z,43.00
2018-11-06T13:36:44.089Z,43.80
2018-11-06T13:39:12.517Z,43.40
2018-11-06T13:41:40.699Z,43.70
2018-11-06T13:44:09.115Z,44.00
2018-11-06T13:46:36.328Z,43.50
2018-11-06T13:49:05.288Z,44.20
2018-11-06T13:51:35.438Z,43.90
2018-11-06T13:54:03.043Z,43.30
2018-11-06T13:56:32.070Z,43.50
2018-11-06T13:59:00.246Z,44.10
2018-11-06T14:01:27.860Z,44.90
2018-11-06T14:03:56.883Z,44.80
2018-11-06T14:06:25.252Z,45.20
2018-11-06T14:08:52.874Z,45.40
2018-11-06T14:11:20.477Z,45.80
2018-11-06T14:13:48.736Z,45.60
2018-11-06T14:16:16.376Z,45.80
2018-11-06T14:18:45.379Z,45.90
2018-11-06T14:21:14.401Z,46.40
2018-11-06T14:23:41.927Z,45.80
2018-11-06T14:26:10.629Z,46.00
2018-11-06T14:28:38.190Z,46.20
2018-11-06T14:31:05.796Z,46.40
2018-11-06T14:33:33.649Z,46.60
2018-11-06T14:36:02.045Z,46.90
2018-11-06T14:38:29.654Z,47.30
2018-11-06T14:40:57.742Z,47.50
2018-11-06T14:43:25.263Z,48.10
2018-11-06T14:45:52.857Z,48.00
2018-11-06T14:48:21.188Z,48.20
2018-11-06T14:50:48.736Z,48.50
2018-11-06T14:53:16.656Z,48.30
2018-11-06T14:55:46.033Z,48.90
2018-11-06T14:58:13.587Z,48.40
2018-11-06T15:00:42.748Z,48.50
2018-11-06T15:03:11.395Z,48.90
2018-11-06T15:05:39.485Z,49.70
2018-11-06T15:08:07.072Z,49.50
2018-11-06T15:10:34.987Z,49.70
2018-11-06T15:13:03.238Z,49.90
2018-11-06T15:15:31.641Z,50.20
2018-11-06T15:17:59.145Z,50.20
2018-11-06T15:20:27.688Z,50.30
2018-11-06T15:22:55.313Z,50.60
2018-11-06T15:25:24.360Z,50.80
2018-11-06T15:27:51.891Z,51.00
2018-11-06T15:30:19.730Z,51.10
2018-11-06T15:32:47.418Z,51.60
2018-11-06T15:35:16.605Z,51.50
2018-11-06T15:37:44.507Z,51.60
2018-11-06T15:40:14.752Z,51.90
2018-11-06T15:42:42.468Z,52.70
2018-11-06T15:45:12.272Z,53.30
2018-11-06T15:47:41.265Z,52.80
2018-11-06T15:50:11.099Z,53.20
2018-11-06T15:52:39.167Z,53.50
2018-11-06T15:55:07.314Z,53.80
2018-11-06T15:57:36.192Z,53.60
2018-11-06T16:00:10.952Z,53.60
2018-11-06T16:02:38.848Z,53.50
2018-11-06T16:05:07.395Z,53.80
2018-11-06T16:07:35.282Z,54.00
2018-11-06T16:10:04.512Z,54.00
2018-11-06T16:12:33.246Z,54.20
2018-11-06T16:15:01.560Z,54.40
2018-11-06T16:17:31.566Z,55.00
2018-11-06T16:19:59.736Z,55.10
2018-11-06T16:22:28.736Z,55.10
2018-11-06T16:24:57.171Z,55.20
2018-11-06T16:27:25.582Z,55.30
2018-11-06T16:29:54.763Z,55.00
2018-11-06T16:32:23.107Z,55.10
2018-11-06T16:34:50.680Z,55.40
2018-11-06T16:37:19.748Z,56.00
2018-11-06T16:39:47.275Z,55.50
2018-11-06T16:42:14.790Z,56.30
2018-11-06T16:44:42.523Z,55.80
2018-11-06T16:47:10.137Z,55.60
2018-11-06T16:49:39.278Z,55.70
2018-11-06T16:52:06.929Z,56.00
2018-11-06T16:54:35.688Z,56.10
2018-11-06T16:57:03.329Z,56.30
2018-11-06T16:59:31.518Z,56.00
2018-11-06T17:01:59.192Z,56.20
2018-11-06T17:04:27.785Z,56.40
2018-11-06T17:06:57.075Z,56.40
2018-11-06T17:09:24.625Z,56.40
2018-11-06T17:11:53.853Z,56.60
2018-11-06T17:14:22.110Z,56.50
2018-11-06T17:16:50.398Z,56.70
2018-11-06T17:19:18.208Z,57.10
2018-11-06T17:21:45.738Z,57.10
2018-11-06T17:24:13.993Z,57.00
2018-11-06T17:26:42.185Z,57.20
2018-11-06T17:29:11.083Z,57.20
2018-11-06T17:31:39.056Z,57.20
2018-11-06T17:34:06.931Z,57.50
2018-11-06T17:36:35.048Z,57.50
2018-11-06T17:39:02.912Z,57.50
2018-11-06T17:41:30.831Z,57.70
2018-11-06T17:43:58.800Z,57.80
2018-11-06T17:46:26.728Z,57.50
2018-11-06T17:48:54.648Z,57.50
2018-11-06T17:51:23.157Z,57.50
2018-11-06T17:53:51.224Z,57.70
2018-11-06T17:56:20.136Z,57.80
2018-11-06T17:58:47.767Z,57.60
2018-11-06T18:01:15.889Z,57.70
2018-11-06T18:03:43.436Z,57.60
2018-11-06T18:06:11.817Z,57.70
2018-11-06T18:08:39.783Z,57.70
2018-11-06T18:11:07.856Z,57.80
2018-11-06T18:13:35.848Z,57.70
2018-11-06T18:16:03.726Z,57.60
2018-11-06T18:18:33.838Z,57.60
2018-11-06T18:21:01.457Z,57.40
2018-11-06T18:23:29.088Z,57.50
2018-11-06T18:25:57.958Z,57.30
2018-11-06T18:28:25.440Z,57.60
2018-11-06T18:30:54.414Z,57.30
2018-11-06T18:33:22.726Z,57.40
2018-11-06T18:35:50.883Z,57.50
2018-11-06T18:38:18.491Z,57.50
2018-11-06T18:40:47.500Z,57.70
2018-11-06T18:43:15.491Z,57.70
2018-11-06T18:45:43.648Z,57.80
2018-11-06T18:48:11.664Z,57.80
2018-11-06T18:50:39.899Z,58.00
2018-11-06T18:53:08.611Z,57.80
2018-11-06T18:55:36.903Z,58.00
2018-11-06T18:58:05.964Z,58.00
2018-11-06T19:00:34.854Z,58.60
2018-11-06T19:03:02.480Z,58.00
2018-11-06T19:05:30.760Z,58.40
2018-11-06T19:07:58.392Z,57.90
2018-11-06T19:10:26.616Z,58.00
2018-11-06T19:12:54.811Z,57.90
2018-11-06T19:15:23.976Z,58.10
2018-11-06T19:17:51.998Z,58.30
2018-11-06T19:20:20.048Z,58.90
2018-11-06T19:22:48.208Z,58.90
2018-11-06T19:25:16.502Z,58.60
2018-11-06T19:27:44.797Z,58.90
2018-11-06T19:30:15.092Z,58.00
2018-11-06T19:32:43.404Z,57.90
2018-11-06T19:35:10.971Z,57.60
2018-11-06T19:37:40.298Z,57.70
2018-11-06T19:40:10.305Z,57.60
2018-11-06T19:42:40.040Z,57.70
2018-11-06T19:45:10.286Z,57.80
2018-11-06T19:47:38.419Z,57.50
2018-11-06T19:50:08.382Z,57.60
2018-11-06T19:52:36.037Z,57.70
2018-11-06T19:55:05.183Z,57.70
2018-11-06T19:57:33.251Z,57.80
2018-11-06T20:00:02.448Z,57.80
2018-11-06T20:02:32.198Z,57.80
2018-11-06T20:05:00.594Z,57.90
2018-11-06T20:07:28.925Z,57.90
2018-11-06T20:09:58.870Z,58.20
2018-11-06T20:12:26.495Z,58.20
2018-11-06T20:14:55.105Z,58.20
2018-11-06T20:17:22.819Z,58.30
2018-11-06T20:19:50.435Z,58.10
2018-11-06T20:22:18.152Z,58.00
2018-11-06T20:24:47.308Z,58.20
2018-11-06T20:27:14.907Z,58.40
2018-11-06T20:29:42.444Z,58.30
2018-11-06T20:32:12.103Z,58.30
2018-11-06T20:34:41.752Z,58.30
2018-11-06T20:37:09.905Z,58.30
2018-11-06T20:39:37.463Z,59.10
2018-11-06T20:42:05.888Z,59.20
2018-11-06T20:44:33.424Z,58.20
2018-11-06T20:47:00.976Z,58.30
2018-11-06T20:49:29.667Z,58.00
2018-11-06T20:51:57.564Z,57.80
2018-11-06T20:54:28.013Z,57.80
2018-11-06T20:56:57.875Z,58.50
2018-11-06T20:59:26.208Z,58.30
2018-11-06T21:01:54.604Z,58.20
2018-11-06T21:04:23.395Z,58.70
2018-11-06T21:06:51.005Z,58.40
2018-11-06T21:09:19.024Z,58.50
2018-11-06T21:11:46.621Z,58.70
2018-11-06T21:14:14.882Z,58.70
2018-11-06T21:16:43.061Z,58.80
2018-11-06T21:19:11.139Z,58.80
2018-11-06T21:21:39.200Z,58.80
2018-11-06T21:24:07.495Z,59.00
2018-11-06T21:26:35.129Z,58.90
2018-11-06T21:29:02.561Z,59.10
2018-11-06T21:31:30.661Z,59.10
2018-11-06T21:33:58.229Z,59.40
2018-11-06T21:36:25.808Z,59.10
2018-11-06T21:38:53.840Z,60.20
2018-11-06T21:41:21.350Z,59.50
2018-11-06T21:43:49.308Z,59.50
2018-11-06T21:46:18.608Z,60.30
2018-11-06T21:48:47.442Z,59.90
2018-11-06T21:51:14.999Z,60.20
2018-11-06T21:53:42.536Z,60.40
2018-11-06T21:56:12.294Z,60.40
2018-11-06T21:58:40.642Z,60.30
2018-11-06T22:01:09.464Z,60.70
2018-11-06T22:03:38.570Z,60.90
2018-11-06T22:06:06.872Z,61.10
2018-11-06T22:08:35.228Z,60.70
2018-11-06T22:11:03.725Z,61.60
2018-11-06T22:13:31.769Z,61.10
2018-11-06T22:16:01.083Z,61.10
2018-11-06T22:18:28.749Z,61.20
2018-11-06T22:20:56.448Z,61.40
2018-11-06T22:23:25.544Z,62.30
2018-11-06T22:25:53.544Z,62.10
2018-11-06T22:28:21.088Z,61.90
2018-11-06T22:30:49.212Z,62.00
2018-11-06T22:33:18.703Z,61.50
2018-11-06T22:35:46.237Z,61.20
2018-11-06T22:38:13.970Z,61.60
2018-11-06T22:40:42.188Z,61.50
2018-11-06T22:43:10.681Z,61.40
2018-11-06T22:45:38.229Z,61.80
2018-11-06T22:48:07.208Z,61.50
2018-11-06T22:50:34.753Z,61.70
2018-11-06T22:53:03.801Z,61.80
2018-11-06T22:55:34.288Z,61.60
2018-11-06T22:58:02.481Z,62.10
2018-11-06T23:00:37.096Z,61.90
2018-11-06T23:03:09.831Z,62.50
2018-11-06T23:05:38.134Z,62.30
2018-11-06T23:08:11.937Z,61.80
2018-11-06T23:10:39.633Z,61.40
2018-11-06T23:13:08.128Z,61.80
2018-11-06T23:15:38.309Z,61.90
2018-11-06T23:18:06.784Z,61.90
2018-11-06T23:20:34.367Z,61.90
2018-11-06T23:23:02.171Z,62.10
2018-11-06T23:25:30.860Z,61.80
2018-11-06T23:27:59.059Z,61.00
2018-11-06T23:30:26.978Z,61.00
2018-11-06T23:32:55.283Z,60.80
2018-11-06T23:35:22.844Z,60.90
2018-11-06T23:37:51.319Z,61.30
2018-11-06T23:40:18.864Z,61.30
2018-11-06T23:42:47.632Z,61.40
2018-11-06T23:45:15.178Z,61.50
2018-11-06T23:47:42.897Z,61.70
2018-11-06T23:50:11.499Z,61.80
2018-11-06T23:52:39.644Z,62.00
2018-11-06T23:55:07.885Z,62.70
2018-11-06T23:57:35.945Z,62.20
